Date,TemperatureHighF,TemperatureAvgF,TemperatureLowF,DewpointHighF,DewpointAvgF,DewpointLowF,HumidityHigh,HumidityAvg,HumidityLow,PressureMaxIn,PressureMinIn,WindSpeedMaxMPH,WindSpeedAvgMPH,GustSpeedMaxMPH,PrecipitationSumIn
2013-1-1,18,10,6,6,3,-1,80,71,52,30.15,30.06,7,4,13,0.00
2013-1-2,29,21,6,17,11,0,79,67,46,30.11,29.99,7,3,17,0.00
2013-1-3,25,19,14,22,13,-100,89,82,10,30.17,29.99,25,7,29,0.00
2013-1-4,33,22,11,21,15,6,88,76,60,30.13,30.01,17,8,31,0.00
2013-1-5,40,26,18,30,21,-100,97,86,10,30.16,29.96,25,3,29,0.00
2013-1-6,31,25,16,24,20,15,93,83,75,30.24,29.97,14,6,25,0.00
2013-1-7,40,28,15,27,21,13,93,78,56,30.23,29.99,14,6,31,0.00
2013-1-8,42,36,25,31,29,-100,95,77,10,30.08,29.92,25,4,29,0.00
2013-1-9,43,36,27,32,27,-100,86,72,10,30.42,29.89,25,9,43,0.00
2013-1-10,46,33,22,37,29,-100,100,86,10,30.44,29.94,25,3,29,0.23
2013-1-11,50,45,37,50,45,37,100,100,95,29.93,29.70,11,4,28,0.20
2013-1-12,51,40,26,49,35,22,96,82,70,30.02,29.71,17,8,34,0.00
2013-1-13,26,21,13,24,16,6,96,80,69,30.23,29.91,13,6,26,0.00
2013-1-14,26,16,8,11,7,4,83,70,48,30.46,30.24,9,4,21,0.00
2013-1-15,32,20,10,17,12,7,89,73,49,30.46,30.14,6,2,12,0.00
2013-1-16,33,26,14,30,20,10,89,77,56,30.14,29.82,15,6,35,0.00
2013-1-17,33,22,13,30,9,1,89,59,41,30.43,30.08,11,5,21,0.00
2013-1-18,42,30,12,31,23,8,86,75,62,30.46,29.90,16,7,44,0.07
2013-1-19,44,39,21,37,31,7,80,72,43,29.95,29.74,25,10,50,0.00
2013-1-20,21,13,8,6,-1,-3,63,54,43,30.33,29.95,19,8,36,0.00
2013-1-21,11,6,0,3,-7,-14,74,56,39,30.29,30.16,15,9,33,0.00
2013-1-22,8,2,-7,-6,-10,-16,68,57,47,30.40,30.29,11,6,23,0.00
2013-1-23,19,12,4,14,3,-6,89,67,55,30.40,30.12,13,6,23,0.00
2013-1-24,22,12,1,9,1,-8,68,60,49,30.67,30.40,9,3,17,0.00
2013-1-25,26,21,16,19,13,4,87,72,53,30.42,30.01,11,5,22,0.00
2013-1-26,30,18,8,15,8,3,80,65,41,30.43,30.22,7,2,13,0.02
2013-1-27,34,28,22,34,24,15,100,84,68,30.41,29.95,6,3,15,0.02
2013-1-28,44,39,34,44,38,34,100,97,86,30.03,29.85,9,4,18,0.18
2013-1-29,62,50,37,62,50,37,100,100,100,29.89,29.49,12,3,23,1.15
2013-1-30,41,29,16,41,29,12,100,98,83,29.66,29.30,13,4,28,0.26
2013-1-31,18,12,3,13,6,-4,87,78,67,30.17,29.66,15,9,30,0.00
2013-2-1,10,4,-4,7,-4,-10,87,70,56,30.36,30.18,13,7,26,0.00
2013-2-2,17,11,4,16,5,-2,95,78,62,30.20,30.06,8,4,16,0.00
2013-2-3,21,14,5,14,8,-2,89,76,60,30.10,30.00,12,5,24,0.00
2013-2-4,25,17,8,19,13,1,93,84,69,30.09,29.96,10,3,17,0.00
2013-2-5,30,19,4,25,15,-1,91,81,71,30.16,29.85,11,4,26,0.00
2013-2-6,38,26,7,30,20,5,92,80,64,30.29,30.15,6,2,15,0.12
2013-2-7,36,32,26,36,32,26,100,97,85,30.17,29.95,3,1,8,0.03
2013-2-8,27,23,20,26,22,19,100,97,87,30.45,30.05,0,0,0,0.00
2013-2-9,39,23,12,39,23,10,100,97,89,30.45,30.15,6,1,16,0.08
2013-2-10,44,35,24,44,35,24,100,99,78,30.15,29.53,14,3,32,0.68
2013-2-11,41,31,26,35,26,20,90,79,74,30.07,29.54,24,13,46,0.00
2013-2-12,29,24,20,20,18,16,95,80,65,30.16,29.96,11,6,23,0.00
2013-2-13,46,32,19,33,27,18,100,84,57,29.96,29.77,8,3,16,0.00
2013-2-14,38,34,27,34,28,20,94,80,61,30.04,29.68,16,7,31,0.00
2013-2-15,29,23,15,25,12,5,90,64,43,30.24,30.04,9,6,19,0.00
2013-2-16,18,12,6,6,1,-2,76,62,43,30.25,30.18,9,5,16,0.00
2013-2-17,32,16,2,14,3,-4,76,58,30,30.27,30.05,5,1,11,0.00
2013-2-18,51,38,25,44,31,14,100,77,59,30.05,29.48,15,6,31,0.36
2013-2-19,29,14,8,29,9,-1,100,78,62,30.22,29.59,18,12,36,0.00
2013-2-20,21,12,6,10,4,-2,85,69,61,30.42,30.23,10,6,19,0.00
2013-2-21,27,22,14,24,19,9,94,86,78,30.45,30.10,12,6,25,0.00
2013-2-22,37,29,24,37,28,23,100,97,87,30.10,29.86,11,5,26,0.03
2013-2-23,32,26,18,25,20,14,92,78,61,30.01,29.93,12,6,23,0.00
2013-2-24,42,27,14,26,19,11,90,74,52,30.21,30.01,7,2,12,0.01
2013-2-25,49,30,14,30,24,12,96,79,45,30.24,30.08,6,2,10,0.01
2013-2-26,34,32,30,32,30,26,100,90,74,30.07,29.64,18,10,36,0.00
2013-2-27,36,32,30,34,32,30,100,99,90,29.79,29.62,10,6,20,0.20
2013-2-28,36,31,25,32,27,19,100,86,72,30.15,29.79,11,7,19,0.01
2013-3-1,26,24,23,22,20,18,92,84,78,30.26,30.14,10,7,21,0.00
2013-3-2,30,22,11,18,14,8,86,72,55,30.27,30.22,8,4,15,0.00
2013-3-3,35,19,9,13,8,1,87,66,32,30.22,30.14,6,2,13,0.00
2013-3-4,39,24,8,26,18,5,91,79,56,30.19,30.09,9,3,15,0.00
2013-3-5,32,30,27,31,27,24,100,91,74,30.10,29.92,11,6,20,0.06
2013-3-6,36,30,26,28,25,23,91,83,71,30.36,30.08,10,6,18,0.08
2013-3-7,44,31,22,26,22,18,99,73,45,30.49,30.36,6,3,12,0.00
2013-3-8,48,31,15,32,25,13,99,79,52,30.54,30.36,5,2,12,0.00
2013-3-9,49,38,28,35,30,24,98,76,52,30.36,29.91,6,2,14,0.05
2013-3-10,47,42,38,47,41,34,100,98,69,29.91,29.69,9,3,23,0.78
2013-3-11,44,36,31,44,36,31,100,100,100,29.82,29.60,11,4,19,0.04
2013-3-12,37,30,24,32,26,21,100,85,57,30.06,29.82,14,7,33,0.03
2013-3-13,32,25,19,22,12,3,91,61,33,30.36,30.06,15,7,24,0.00
2013-3-14,44,30,16,28,20,11,98,68,35,30.37,30.14,7,3,13,0.00
2013-3-15,44,33,28,36,31,27,100,93,68,30.14,29.84,10,3,20,0.10
2013-3-16,33,29,26,31,26,20,100,89,72,30.19,29.84,11,5,19,0.00
2013-3-17,33,28,20,25,19,13,85,70,57,30.29,30.08,11,6,19,0.00
2013-3-18,42,30,19,35,26,10,99,85,68,30.07,29.66,20,7,40,0.12
2013-3-19,29,21,14,13,10,7,78,63,46,30.10,29.81,19,13,39,0.00
2013-3-20,22,16,11,8,4,0,65,58,48,30.13,30.07,13,8,29,0.00
2013-3-21,31,20,10,14,8,2,72,60,46,30.10,30.06,10,5,19,0.00
2013-3-22,39,26,15,18,14,8,80,61,41,30.15,30.07,6,3,11,0.00
2013-3-23,43,30,19,28,22,16,93,75,43,30.21,30.11,8,3,18,0.00
2013-3-24,37,32,30,30,26,24,94,81,68,30.11,29.79,16,8,30,0.00
2013-3-25,35,31,28,29,26,24,89,81,69,30.14,29.81,14,8,24,0.00
2013-3-26,41,35,30,27,26,24,82,70,56,30.31,30.14,10,5,17,0.00
2013-3-27,43,35,28,27,22,18,73,61,40,30.38,30.31,8,4,16,0.00
2013-3-28,52,37,26,27,22,19,79,57,33,30.40,30.34,6,2,14,0.00
2013-3-29,54,38,25,32,23,20,83,58,29,30.39,30.31,6,2,12,0.00
2013-3-30,62,45,26,42,33,22,88,65,41,30.31,29.90,10,4,23,0.00
2013-3-31,54,43,33,43,36,24,100,78,46,29.95,29.77,17,8,40,0.00
2013-4-1,36,31,27,23,16,8,81,54,32,30.24,29.95,13,7,26,0.00
2013-4-2,41,32,23,17,13,6,72,49,25,30.36,30.24,12,5,22,0.00
2013-4-3,48,33,22,20,15,7,74,50,25,30.50,30.36,8,3,17,0.00
2013-4-4,60,44,25,36,26,16,73,52,32,30.36,30.02,13,5,24,0.00
2013-4-5,47,38,31,33,28,18,95,70,48,30.31,30.08,10,5,19,0.00
2013-4-6,67,50,34,52,36,27,98,63,33,30.23,29.65,14,6,37,0.11
2013-4-7,61,46,34,51,39,32,99,78,47,30.05,29.65,13,6,28,0.01
2013-4-8,56,44,35,53,42,32,100,95,81,30.04,29.61,18,5,37,0.45
2013-4-9,42,38,36,42,38,36,100,100,100,30.09,29.91,14,7,29,0.47
2013-4-10,38,36,34,38,36,34,100,100,100,30.10,29.91,28,6,32,0.38
2013-4-11,39,37,36,39,6,-100,100,77,100,29.77,29.58,28,0,32,0.15
2013-4-12,44,39,35,43,36,-100,100,96,83,29.67,29.57,28,0,32,0.00
2013-4-13,41,38,31,30,28,27,89,70,60,30.00,29.86,28,0,32,0.00
2013-4-14,55,42,31,49,37,28,100,84,64,30.02,29.65,11,2,21,0.03
2013-4-15,67,54,41,56,50,41,100,85,60,29.98,29.65,18,7,45,0.31
2013-4-16,56,44,35,42,37,34,100,79,50,30.28,29.96,8,4,15,0.01
2013-4-17,42,40,38,42,30,-100,100,86,72,30.32,29.81,13,6,26,1.63
2013-4-18,61,48,39,61,48,34,100,99,81,29.85,29.39,21,5,42,1.46
2013-4-19,41,37,32,36,30,24,92,76,62,29.89,29.44,22,12,48,0.00
2013-4-20,47,35,28,28,21,14,87,59,26,30.41,29.89,12,6,22,0.00
2013-4-21,54,42,26,32,27,23,90,58,35,30.50,30.29,9,4,19,0.00
2013-4-22,72,54,40,41,35,31,71,50,25,30.30,30.03,8,4,18,0.00
2013-4-23,56,45,36,51,42,36,100,90,58,30.03,29.91,9,4,22,0.38
2013-4-24,54,42,35,36,30,24,95,64,32,30.06,29.93,12,5,25,0.03
2013-4-25,54,44,37,38,33,29,100,66,39,30.29,30.00,12,7,27,0.03
2013-4-26,71,54,36,49,40,27,80,59,41,30.30,30.18,13,6,31,0.00
2013-4-27,73,60,45,52,46,42,97,64,38,30.26,30.00,7,3,23,0.00
2013-4-28,74,58,49,58,50,43,100,76,51,30.00,29.81,6,2,13,0.00
2013-4-29,76,63,49,59,54,49,100,76,48,29.88,29.74,8,4,22,0.00
2013-4-30,87,73,61,64,60,56,91,66,38,29.90,29.72,12,8,35,0.00
2013-5-1,89,74,47,62,57,43,94,58,28,30.14,29.90,10,5,21,0.00
2013-5-2,54,46,40,46,41,36,100,85,68,30.23,30.11,13,8,28,0.56
2013-5-3,45,41,37,45,41,37,100,100,100,30.14,29.95,12,7,24,0.21
2013-5-4,72,56,44,55,48,44,100,79,53,30.01,29.93,9,4,18,0.01
2013-5-5,70,57,46,52,46,40,93,68,48,30.02,29.96,10,4,19,0.00
2013-5-6,77,60,47,46,41,32,75,53,22,30.03,29.95,10,3,18,0.00
2013-5-7,81,65,48,49,43,37,79,49,25,30.03,29.95,7,3,20,0.00
2013-5-8,88,66,46,52,47,42,100,56,22,30.02,29.93,8,2,13,0.00
2013-5-9,77,58,43,62,52,42,100,82,51,29.93,29.83,10,3,24,0.12
2013-5-10,44,43,40,44,42,40,100,99,95,29.94,29.77,11,6,22,0.37
2013-5-11,56,47,40,52,38,24,100,75,33,29.97,29.76,20,7,33,0.00
2013-5-12,54,45,36,34,28,21,88,55,30,30.06,29.97,11,7,24,0.00
2013-5-13,68,49,31,41,34,25,100,62,23,30.13,29.94,8,2,18,0.00
2013-5-14,88,68,48,63,51,34,78,55,26,29.93,29.54,12,5,28,0.00
2013-5-15,86,74,57,63,53,40,90,52,21,29.80,29.54,12,4,28,0.00
2013-5-16,87,66,53,55,49,39,93,57,29,29.93,29.78,9,3,19,0.00
2013-5-17,66,57,52,51,47,38,86,70,56,30.03,29.92,10,4,21,0.03
2013-5-18,86,67,49,67,57,46,96,73,50,30.01,29.90,5,2,13,0.00
2013-5-19,92,74,54,73,64,54,100,75,49,29.91,29.70,8,2,17,0.00
2013-5-20,91,78,64,70,64,56,100,65,31,29.71,29.62,12,4,31,0.16
2013-5-21,85,72,62,69,63,58,100,77,48,29.67,29.57,13,5,31,0.05
2013-5-22,75,64,51,75,63,51,100,96,68,29.69,29.55,8,2,20,0.28
2013-5-23,52,48,39,52,45,35,100,92,70,30.22,29.69,12,6,26,0.06
2013-5-24,67,48,34,45,37,32,95,68,38,30.35,30.22,7,3,15,0.00
2013-5-25,65,51,39,44,38,31,96,63,35,30.31,30.20,6,2,13,0.00
2013-5-26,74,55,38,51,43,34,96,69,34,30.22,30.07,7,3,16,0.03
2013-5-27,54,52,50,54,51,44,100,96,78,30.07,29.80,8,3,18,0.03
2013-5-28,76,64,50,73,62,50,100,96,76,29.80,29.59,8,3,20,0.58
2013-5-29,91,73,62,72,67,62,100,85,53,29.84,29.68,7,2,18,0.00
2013-5-30,90,77,62,74,69,62,100,77,58,29.81,29.64,13,6,38,0.13
2013-5-31,82,71,62,75,66,62,100,86,61,29.75,29.59,12,4,30,0.17
2013-6-1,83,71,60,70,66,60,100,85,63,29.61,29.51,9,4,24,0.36
2013-6-2,61,54,42,60,50,42,100,87,68,29.90,29.56,9,3,17,0.00
2013-6-3,80,60,42,55,45,40,100,65,28,29.98,29.89,5,2,17,0.00
2013-6-4,78,61,48,51,46,41,80,60,29,30.05,29.96,7,3,17,0.00
2013-6-5,68,57,51,57,51,46,100,82,55,30.00,29.84,5,3,13,0.05
2013-6-6,62,55,52,56,53,46,100,91,74,29.85,29.77,9,3,15,0.08
2013-6-7,71,61,49,54,46,38,88,62,35,29.84,29.78,9,4,19,0.00
2013-6-8,85,63,45,57,49,43,100,66,25,29.89,29.78,7,2,15,0.00
2013-6-9,87,69,51,66,58,49,97,71,41,29.90,29.68,7,3,17,0.00
2013-6-10,80,68,58,69,64,58,100,88,66,29.73,29.63,7,1,9,0.03
2013-6-11,93,75,59,68,64,59,100,73,43,29.78,29.65,7,2,16,0.00
2013-6-12,79,68,61,68,65,61,100,90,67,29.77,29.47,10,4,19,0.60
2013-6-13,76,65,54,64,58,52,100,81,59,29.92,29.52,11,4,19,0.01
2013-6-14,86,66,50,62,55,49,100,71,39,30.00,29.87,8,2,14,0.00
2013-6-15,88,69,53,74,64,49,100,87,60,29.92,29.67,8,2,24,0.20
2013-6-16,90,77,66,71,63,56,100,66,35,29.75,29.68,11,4,31,0.05
2013-6-17,96,74,56,65,59,54,95,65,30,29.80,29.67,11,4,22,0.00
2013-6-18,70,60,52,59,53,45,100,78,57,29.92,29.79,10,6,19,0.00
2013-6-19,81,66,47,54,48,40,95,56,31,29.99,29.91,5,2,14,0.00
2013-6-20,93,74,51,67,57,38,89,58,33,29.99,29.90,6,2,15,0.00
2013-6-21,80,71,65,74,67,59,100,89,69,29.98,29.71,11,3,26,0.49
2013-6-22,86,72,66,77,70,66,100,93,75,29.97,29.77,7,3,24,1.12
2013-6-23,94,78,66,78,71,66,100,82,57,29.86,29.67,9,4,23,0.03
2013-6-24,92,74,66,78,70,66,100,89,54,29.85,29.64,9,4,25,0.56
2013-6-25,88,72,64,81,69,-100,100,94,69,29.76,29.60,12,2,26,0.66
2013-6-26,82,72,66,82,70,66,100,94,74,29.62,29.51,6,2,16,0.66
2013-6-27,93,78,65,76,71,64,100,79,49,29.57,29.45,11,3,23,0.01
2013-6-28,80,72,64,68,65,62,100,80,58,29.47,29.37,11,5,25,0.05
2013-6-29,71,64,62,64,62,58,100,91,69,29.58,29.38,11,5,23,0.01
2013-6-30,75,67,58,64,55,44,94,68,36,29.79,29.58,13,6,28,0.00
2013-7-1,77,69,59,58,53,-100,89,60,15,29.87,29.78,31,6,35,0.00
2013-7-2,72,61,56,60,56,50,99,83,47,29.90,29.84,9,3,18,0.03
2013-7-3,73,64,58,66,62,57,100,93,78,29.85,29.80,5,2,10,0.00
2013-7-4,92,75,57,71,64,57,100,74,39,29.88,29.78,5,1,16,0.01
2013-7-5,93,78,62,70,65,59,100,69,38,29.86,29.75,6,2,19,0.00
2013-7-6,96,78,63,74,69,63,100,76,40,29.83,29.72,5,2,13,0.00
2013-7-7,97,81,68,76,72,68,100,78,47,29.77,29.68,7,2,17,0.00
2013-7-8,92,78,70,80,74,70,100,88,68,29.75,29.68,10,4,23,0.17
2013-7-9,94,78,67,82,75,67,100,90,68,29.76,29.60,9,2,21,0.03
2013-7-10,81,75,61,77,68,59,100,78,54,29.76,29.59,10,4,19,0.00
2013-7-11,85,70,56,66,59,53,100,71,42,29.88,29.76,6,2,12,0.00
2013-7-12,92,71,52,63,58,52,100,70,31,29.93,29.84,5,1,11,0.00
2013-7-13,89,75,57,69,63,57,100,70,38,29.93,29.87,6,2,15,0.00
2013-7-14,94,79,62,74,69,62,100,75,48,29.98,29.91,4,2,11,0.00
2013-7-15,99,82,68,80,74,68,100,80,52,30.03,29.97,6,1,12,0.00
2013-7-16,100,86,72,80,77,72,100,77,52,30.05,29.98,6,2,15,0.00
2013-7-17,102,86,74,80,77,74,100,76,47,30.06,29.91,8,2,16,0.00
2013-7-18,99,87,75,80,77,75,100,73,48,29.93,29.68,9,4,20,0.00
2013-7-19,95,86,76,79,75,71,92,72,52,29.69,29.50,14,7,33,0.00
2013-7-20,91,76,63,72,66,60,98,74,43,29.71,29.55,9,3,19,0.00
2013-7-21,92,71,62,76,66,61,100,87,52,29.73,29.58,10,2,18,0.59
2013-7-22,95,77,63,83,66,-100,100,79,46,29.64,29.44,14,2,43,0.01
2013-7-23,77,68,57,67,62,57,100,83,56,29.73,29.42,9,4,19,0.05
2013-7-24,77,64,51,62,56,51,100,78,53,29.82,29.73,7,2,13,0.00
2013-7-25,88,70,52,64,59,52,100,73,41,29.85,29.73,5,2,16,0.00
2013-7-26,69,65,61,69,64,61,100,95,79,29.73,29.61,10,4,24,0.37
2013-7-27,63,58,54,61,53,48,100,85,62,29.67,29.61,10,4,17,0.01
2013-7-28,70,60,52,56,53,51,100,79,56,29.75,29.60,10,4,21,0.03
2013-7-29,84,65,54,65,58,54,100,80,47,29.94,29.75,5,2,12,0.00
2013-7-30,82,66,54,67,62,54,100,88,57,29.96,29.83,4,1,9,0.09
2013-7-31,83,67,61,71,65,61,100,94,64,29.83,29.68,7,2,18,0.26
2013-8-1,78,68,0,67,60,0,100,81,50,29.74,29.69,9,3,19,0.01
2013-8-3,78,64,59,65,60,59,100,88,59,29.86,29.80,4,1,8,0.00
2013-8-4,78,65,54,63,59,54,100,84,59,29.96,29.85,7,2,13,0.00
2013-8-5,81,65,54,67,61,54,100,89,62,29.86,29.62,8,2,18,0.17
2013-8-6,90,74,62,79,71,62,100,90,65,29.62,29.53,8,2,16,0.21
2013-8-7,88,75,62,77,71,62,100,87,60,29.69,29.49,10,3,17,0.00
2013-8-8,82,68,60,66,58,53,100,74,42,29.78,29.68,7,2,14,0.00
2013-8-9,85,71,55,70,63,55,100,78,55,29.75,29.68,9,2,16,0.00
2013-8-10,84,70,58,68,62,58,100,79,46,29.86,29.75,7,1,14,0.00
2013-8-11,84,68,54,69,63,54,100,85,55,29.86,29.74,4,1,11,0.02
2013-8-12,84,72,64,75,68,63,100,89,68,29.75,29.58,8,2,11,0.00
2013-8-13,72,62,52,63,54,50,100,78,48,29.87,29.66,11,3,18,0.00
2013-8-14,76,60,48,58,53,48,100,79,48,29.94,29.85,5,1,11,0.00
2013-8-15,84,66,54,62,56,52,100,74,38,29.88,29.81,4,2,11,0.00
2013-8-16,85,69,54,63,58,54,100,74,40,29.90,29.84,7,2,12,0.00
2013-8-17,86,69,54,68,59,54,100,74,41,29.98,29.88,5,1,11,0.01
2013-8-18,86,70,53,67,60,53,100,74,43,29.95,29.81,5,1,11,0.00
2013-8-19,88,73,58,69,64,58,100,77,49,29.88,29.73,8,2,16,0.00
2013-8-20,91,77,62,71,67,62,100,76,48,29.82,29.74,7,2,21,0.00
2013-8-21,93,80,66,74,70,66,100,75,49,29.78,29.64,9,4,23,0.05
2013-8-22,78,71,64,72,69,64,100,95,79,29.83,29.70,12,2,23,0.12
2013-8-23,85,70,56,65,60,56,100,74,39,29.91,29.83,6,2,13,0.00
2013-8-24,91,72,54,68,62,54,100,76,44,29.99,29.88,7,2,16,0.00
2013-8-25,93,79,66,75,68,59,88,70,49,29.94,29.81,9,5,24,0.00
2013-8-26,93,80,71,78,73,66,100,79,62,29.85,29.68,9,4,22,0.00
2013-8-27,98,85,73,79,76,73,99,76,50,29.69,29.53,10,4,29,0.00
2013-8-28,82,75,64,76,72,64,100,91,77,29.75,29.54,8,4,18,0.00
2013-8-29,95,76,62,76,69,62,100,82,46,29.79,29.69,4,1,10,0.01
2013-8-30,97,76,65,80,71,65,100,88,51,29.70,29.47,13,3,30,0.36
2013-8-31,77,70,64,72,68,64,100,93,78,29.58,29.51,5,2,10,0.01
2013-9-1,88,72,62,76,68,62,100,90,65,29.54,29.41,10,2,19,0.33
2013-9-2,75,66,57,67,62,54,100,88,63,29.71,29.52,8,2,15,0.01
2013-9-3,79,63,50,60,56,50,100,81,44,29.82,29.71,6,1,11,0.00
2013-9-4,84,68,52,68,62,52,100,82,55,29.83,29.75,7,2,14,0.00
2013-9-5,74,64,51,66,56,50,100,76,48,29.99,29.83,9,3,19,0.00
2013-9-6,89,70,49,72,62,49,100,79,53,29.95,29.71,7,2,17,0.00
2013-9-7,88,74,65,74,69,65,100,86,54,29.71,29.59,7,2,18,0.00
2013-9-8,72,68,65,71,68,65,100,97,88,29.76,29.67,10,4,21,0.00
2013-9-9,95,79,66,80,73,66,100,85,60,29.70,29.50,8,3,17,0.00
2013-9-10,96,84,73,74,69,65,84,62,37,29.67,29.54,10,5,30,0.00
2013-9-11,89,76,68,74,70,68,99,83,55,29.77,29.65,6,2,17,0.04
2013-9-12,78,66,56,69,62,56,100,88,63,29.82,29.65,11,3,25,0.01
2013-9-13,65,55,46,56,47,44,100,77,52,29.92,29.82,8,4,16,0.00
2013-9-14,76,57,41,54,48,41,100,75,43,29.92,29.73,7,2,16,0.00
2013-9-15,58,55,51,57,53,46,100,94,66,29.91,29.71,5,1,14,0.52
2013-9-16,63,53,43,56,49,43,100,87,58,30.09,29.91,8,4,17,0.01
2013-9-17,76,58,42,58,52,42,100,85,54,30.07,29.84,5,1,13,0.01
2013-9-18,84,69,58,70,63,54,100,83,62,29.84,29.62,7,2,18,0.00
2013-9-19,83,73,67,79,71,67,100,94,77,29.68,29.46,7,3,19,0.55
2013-9-20,76,67,56,69,63,55,100,88,68,29.53,29.44,10,5,23,0.00
2013-9-21,61,55,48,56,50,46,100,85,64,29.67,29.51,9,4,17,0.00
2013-9-22,67,52,41,51,47,41,100,85,51,29.80,29.67,7,2,16,0.00
2013-9-23,68,54,42,57,49,42,100,86,58,29.86,29.77,6,1,13,0.00
2013-9-24,72,58,48,58,52,48,100,85,55,29.80,29.68,6,2,15,0.01
2013-9-25,68,56,48,60,52,48,100,87,57,29.73,29.67,9,2,19,0.00
2013-9-26,78,59,45,64,53,45,100,83,37,29.82,29.70,5,1,14,0.01
2013-9-27,83,63,48,62,55,48,100,80,47,29.90,29.77,6,2,16,0.01
2013-9-28,84,68,55,68,60,54,100,79,49,29.80,29.58,12,4,30,0.09
2013-9-29,70,56,46,59,50,43,100,83,39,29.79,29.65,7,2,17,0.10
2013-9-30,76,58,42,60,51,42,100,81,45,29.73,29.57,6,2,17,0.00
2013-10-1,82,68,57,68,63,53,100,87,61,29.67,29.57,12,4,29,0.00
2013-10-2,80,64,51,63,52,38,100,74,27,29.83,29.67,6,1,11,0.00
2013-10-3,78,68,56,72,66,56,100,95,77,29.71,29.56,7,2,17,0.03
2013-10-4,72,66,62,72,66,62,100,99,87,29.71,29.60,5,2,13,0.24
2013-10-5,83,68,62,76,67,62,100,96,76,29.67,29.45,8,2,19,0.18
2013-10-6,63,54,43,63,49,43,100,85,55,29.48,29.39,11,4,23,0.08
2013-10-7,67,53,44,50,47,44,100,82,52,29.79,29.45,10,4,19,0.00
2013-10-8,78,58,41,62,50,41,100,78,40,29.90,29.79,6,2,16,0.00
2013-10-9,75,59,48,53,50,46,100,76,37,29.96,29.86,5,2,12,0.00
2013-10-10,78,58,42,63,52,42,100,85,44,29.90,29.77,5,1,12,0.01
2013-10-11,78,62,52,62,56,52,100,81,54,29.86,29.68,8,2,18,0.00
2013-10-12,70,61,49,67,56,43,100,84,69,29.88,29.67,8,3,19,0.20
2013-10-13,62,49,39,46,42,39,100,80,46,30.12,29.88,8,2,16,0.00
2013-10-14,63,48,36,49,44,36,100,86,58,30.14,29.86,8,2,16,0.00
2013-10-15,62,54,46,62,53,46,100,95,83,29.86,29.47,6,2,15,0.12
2013-10-16,55,49,44,51,48,44,100,95,85,29.66,29.54,9,4,19,0.00
2013-10-17,50,46,41,50,46,41,100,100,98,29.65,29.55,7,1,16,0.27
2013-10-18,49,43,37,46,41,37,100,91,78,29.69,29.56,10,4,22,0.01
2013-10-19,54,43,36,41,39,34,100,86,50,29.66,29.49,11,3,28,0.00
2013-10-20,56,45,34,48,42,34,100,89,55,29.61,29.46,8,1,17,0.00
2013-10-21,52,41,30,46,33,25,87,73,58,29.69,29.50,10,6,28,0.00
2013-10-22,45,35,26,31,28,24,96,78,56,29.71,29.64,6,3,13,0.00
2013-10-23,44,36,29,30,28,24,97,74,47,29.75,29.66,8,4,18,0.00
2013-10-24,40,36,31,30,28,25,86,73,56,30.02,29.74,9,4,16,0.00
2013-10-25,51,39,26,32,28,24,93,66,44,30.12,29.72,13,5,35,0.00
2013-10-26,52,45,36,39,31,28,75,58,46,29.81,29.56,15,7,34,0.00
2013-10-27,55,42,28,34,31,27,96,68,43,29.80,29.67,10,3,23,0.00
2013-10-28,46,42,36,41,36,30,96,82,73,30.15,29.79,9,5,18,0.00
2013-10-29,56,43,35,46,40,34,100,90,66,30.14,29.90,5,2,11,0.00
2013-10-30,59,51,42,57,50,42,100,97,85,29.90,29.51,5,1,17,0.28
2013-10-31,61,57,44,61,57,44,100,100,100,29.51,29.00,11,4,26,0.45
2013-11-1,47,43,41,44,42,40,100,96,87,29.49,29.11,13,5,27,0.05
2013-11-2,47,41,36,42,39,36,100,94,77,29.90,29.49,8,3,15,0.02
2013-11-3,54,42,29,46,38,29,100,88,59,30.06,29.91,5,1,12,0.00
2013-11-4,59,49,42,46,42,38,90,75,56,30.03,29.84,10,4,25,0.00
2013-11-5,60,52,48,52,49,46,100,90,72,30.02,29.68,12,2,30,0.03
2013-11-6,55,45,32,55,43,26,100,95,70,29.92,29.51,15,6,33,0.53
2013-11-7,41,34,27,34,30,25,94,85,68,29.98,29.92,9,4,18,0.00
2013-11-8,48,38,26,36,32,26,100,79,61,30.08,29.66,12,2,31,0.00
2013-11-9,56,47,40,43,38,26,83,70,55,29.84,29.57,18,7,42,0.00
2013-11-10,49,41,34,33,30,27,79,66,48,30.08,29.84,11,5,23,0.00
2013-11-11,44,34,21,37,28,16,100,82,68,30.29,29.83,10,4,21,0.09
2013-11-12,30,23,18,20,17,15,92,78,59,30.45,30.29,8,4,19,0.00
2013-11-13,40,28,18,21,17,13,86,66,39,30.33,29.89,14,8,35,0.00
2013-11-14,49,39,31,31,26,20,67,59,48,29.89,29.67,12,7,30,0.01
2013-11-15,54,42,35,36,32,27,93,67,47,29.74,29.68,9,3,18,0.00
2013-11-16,59,49,39,59,49,36,100,98,86,29.70,29.34,12,6,34,0.12
2013-11-17,66,53,39,66,53,37,100,98,84,29.47,28.90,23,9,45,0.02
2013-11-18,39,35,27,36,28,22,91,76,61,30.03,29.48,16,9,38,0.00
2013-11-19,42,30,22,32,26,20,100,85,62,30.15,30.04,4,1,10,0.14
2013-11-20,46,37,30,37,31,27,100,81,53,30.07,29.89,9,2,26,0.24
2013-11-21,48,42,37,45,41,37,100,95,85,30.00,29.90,4,0,8,0.03
2013-11-22,40,33,23,40,28,18,100,85,67,30.24,29.99,9,5,18,0.02
2013-11-23,23,19,12,18,8,2,82,63,50,30.48,30.19,13,7,24,0.00
2013-11-24,26,18,7,8,5,2,79,58,36,30.47,30.09,10,5,26,0.00
2013-11-25,30,26,20,27,20,7,94,78,54,30.09,29.83,13,8,30,0.00
2013-11-26,32,26,14,28,20,4,93,77,59,29.96,29.81,13,5,25,0.00
2013-11-27,25,17,10,14,9,4,80,70,56,30.03,29.95,10,6,18,0.00
2013-11-28,30,24,18,17,15,12,83,68,55,30.29,29.98,8,3,18,0.00
2013-11-29,36,24,11,24,18,9,93,78,54,30.43,30.18,5,1,13,0.00
2013-11-30,48,36,28,34,28,22,92,73,55,30.17,29.84,7,3,18,0.00
2013-12-1,40,33,26,32,29,25,99,86,68,29.93,29.79,6,2,10,0.00
2013-12-2,42,34,24,38,30,24,100,88,62,29.80,29.59,5,2,14,0.08
2013-12-3,41,38,34,41,38,34,100,100,100,29.59,29.50,5,1,16,0.06
2013-12-4,52,45,38,52,45,38,100,100,100,29.58,29.31,16,3,36,0.02
2013-12-5,38,25,17,38,18,9,100,77,64,30.07,29.46,16,10,34,0.00
2013-12-6,17,14,9,10,6,0,80,70,61,30.33,30.04,9,6,17,0.00
2013-12-7,17,9,2,4,0,-4,77,67,53,30.49,30.33,9,4,16,0.00
2013-12-8,26,19,7,25,15,-1,100,86,61,30.41,29.75,7,3,15,0.00
2013-12-9,24,13,-5,24,8,-11,100,80,63,30.00,29.73,15,8,32,0.00
2013-12-10,21,8,-7,11,1,-13,82,72,58,30.08,29.77,17,7,35,0.00
2013-12-11,16,8,-3,12,0,-11,90,72,50,30.34,30.08,10,5,19,0.00
2013-12-12,18,8,-6,11,0,-12,81,69,56,30.33,30.00,15,6,29,0.00
2013-12-13,33,24,16,28,20,11,96,83,64,30.02,29.95,8,4,18,0.05
2013-12-14,29,26,20,27,25,18,100,95,88,29.95,29.76,10,6,20,0.00
2013-12-15,20,13,6,18,5,-7,93,71,52,29.95,29.74,11,6,28,0.00
2013-12-16,24,11,-3,13,3,-10,90,70,54,29.99,29.83,6,2,13,0.00
2013-12-17,33,23,14,25,19,11,96,85,67,29.88,29.75,12,7,24,0.01
2013-12-18,35,24,11,27,16,6,83,70,43,29.96,29.63,12,6,30,0.00
2013-12-19,35,32,27,32,30,25,100,91,80,29.78,29.64,9,5,21,0.04
2013-12-20,32,31,26,32,31,26,100,100,100,29.69,29.60,9,4,21,0.06
2013-12-21,32,28,26,32,28,26,100,100,100,29.72,29.49,0,0,0,0.00
2013-12-22,31,27,21,31,26,20,100,97,90,29.95,29.49,4,0,7,0.01
2013-12-23,21,11,-3,21,8,-8,98,85,74,30.24,29.95,10,5,21,0.00
2013-12-24,15,5,-4,12,0,-8,89,79,70,30.36,30.17,7,3,15,0.00
2013-12-25,26,21,15,22,19,12,96,90,83,30.17,29.91,8,5,24,0.00
2013-12-26,28,22,9,27,18,6,97,86,74,30.10,29.92,8,3,18,0.00
2013-12-27,38,30,18,35,27,17,100,90,77,30.11,29.87,11,4,29,0.22
2013-12-28,46,38,28,35,32,27,97,81,65,29.92,29.64,10,5,24,0.09
2013-12-29,37,24,2,32,19,-6,100,82,65,30.05,29.61,12,6,23,0.00
2013-12-30,10,1,-8,-2,-8,-16,78,65,51,30.17,30.02,9,4,17,0.00
2013-12-31,10,4,-3,3,-2,-8,84,76,62,30.18,30.01,9,4,16,0.00
2014-1-1,19,12,4,16,8,0,93,84,69,30.16,30.06,10,6,22,0.00
2014-1-2,16,9,-2,9,4,-9,88,78,65,30.25,30.02,8,5,15,0.00